Grand Island, Oregon
Current Conditions -  °F | °C
As of 9:53 AM on Tuesday 21 Oct 2014 (Local Time) from KMMV Reporting Station
Light Rain Light Rain  
Wind Chill: 55°   Ceiling: 6500
Heat Index: 55°   Visibility: 6mi
Dew Point: 52°   Wind: 5mph
Humidity: 89%   Direction: 150°SSE
Pressure: 30"   Gusts: NA
Location:  45.1812°N, 123.076°W
Report Text: KMMV 211653Z AUTO 15004KT 6SM -RA BR FEW031 FEW049 OVC065 13/11 A3000 RMK AO2 RAB14 SLP158 P0006 T01280111
Loading
Personal Weather Stations






























Interactive Weather Map
Tropical Storm Tracking
New forecast layout! Learn more

10-Day Weather Forecast

Advertisements
Track Severe Weather on mobile